Time;durP1;ratioP1;P1;durP2;ratioP2;P2;SDS_P1;SDS_P2;PMS_P1;PMS_P2;Temp;Humidity;BMP_temperature;BMP_pressure;BME280_temperature;BME280_humidity;BME280_pressure;Samples;Min_cycle;Max_cycle;Signal;HPM_P1;HPM_P2
2021/01/29 00:00:22;;;;;;;15.15;8.10;;;;;;;-1.96;75.34;98660.56;1615412;87;26660;-82
2021/01/29 00:02:54;;;;;;;19.98;8.93;;;;;;;-1.98;75.49;98656.50;1616785;87;25902;-82
2021/01/29 00:05:25;;;;;;;18.65;8.23;;;;;;;-1.99;75.64;98656.14;1616681;87;25713;-82
2021/01/29 00:07:52;;;;;;;16.23;8.98;;;;;;;-1.99;75.81;98659.53;1618182;87;25617;-82
2021/01/29 00:10:18;;;;;;;18.40;9.38;;;;;;;-1.99;75.94;98654.42;1619034;87;25845;-82
2021/01/29 00:12:45;;;;;;;18.92;9.28;;;;;;;-1.99;76.09;98653.14;1615113;87;25953;-82
2021/01/29 00:15:17;;;;;;;19.12;9.65;;;;;;;-1.99;76.26;98644.17;1617069;87;25898;-82
2021/01/29 00:17:44;;;;;;;20.45;9.98;;;;;;;-2.01;76.30;98654.53;1616314;87;27221;-82
2021/01/29 00:20:15;;;;;;;20.57;9.63;;;;;;;-2.03;76.48;98648.72;1615751;87;25874;-82
2021/01/29 00:22:41;;;;;;;19.50;11.28;;;;;;;-2.06;76.64;98643.86;1617032;87;25633;-82
2021/01/29 00:25:15;;;;;;;18.02;9.28;;;;;;;-2.08;76.76;98644.92;1616550;87;25613;-82
2021/01/29 00:27:42;;;;;;;19.42;10.80;;;;;;;-2.12;76.88;98648.21;1617173;87;25861;-82
2021/01/29 00:30:12;;;;;;;20.65;9.63;;;;;;;-2.17;77.12;98642.66;1615619;87;25615;-82
2021/01/29 00:32:38;;;;;;;18.27;9.23;;;;;;;-2.17;77.20;98645.69;1618538;87;34704;-82
2021/01/29 00:35:06;;;;;;;17.57;9.48;;;;;;;-2.17;77.26;98646.97;1616951;86;26047;-82
2021/01/29 00:37:32;;;;;;;17.65;8.45;;;;;;;-2.19;77.28;98644.53;1616573;87;25756;-82
2021/01/29 00:39:58;;;;;;;14.87;7.92;;;;;;;-2.21;77.28;98647.70;1617059;87;25903;-82
2021/01/29 00:42:25;;;;;;;19.02;8.90;;;;;;;-2.23;77.36;98645.73;1618906;87;26808;-83
2021/01/29 00:44:51;;;;;;;18.82;9.33;;;;;;;-2.24;77.36;98641.53;1618572;87;25845;-82
2021/01/29 00:47:17;;;;;;;16.48;8.50;;;;;;;-2.25;77.37;98642.01;1618080;87;25857;-81
2021/01/29 00:49:44;;;;;;;16.23;8.83;;;;;;;-2.26;77.35;98640.88;1618073;87;25790;-81
2021/01/29 00:52:10;;;;;;;16.37;8.68;;;;;;;-2.25;77.45;98638.64;1618582;87;25922;-81
2021/01/29 00:54:36;;;;;;;14.95;8.35;;;;;;;-2.26;77.48;98635.75;1620582;87;26218;-82
2021/01/29 00:57:03;;;;;;;15.45;8.20;;;;;;;-2.26;77.52;98633.20;1618669;87;25861;-82
2021/01/29 00:59:29;;;;;;;19.45;10.20;;;;;;;-2.26;77.48;98633.20;1617204;87;26364;-82
2021/01/29 01:02:09;;;;;;;17.65;8.08;;;;;;;-2.29;77.45;98632.98;1618338;87;26361;-81
2021/01/29 01:04:36;;;;;;;15.85;8.05;;;;;;;-2.33;77.54;98630.79;1617910;87;52655;-81
2021/01/29 01:07:03;;;;;;;18.65;8.25;;;;;;;-2.37;77.70;98632.80;1618634;87;25948;-82
2021/01/29 01:09:46;;;;;;;15.85;9.20;;;;;;;-2.40;77.92;98632.22;1619637;87;25790;-81
2021/01/29 01:12:14;;;;;;;;;;;;;;;-2.41;78.00;98630.13;1621146;87;25735;-81
2021/01/29 01:14:59;;;;;;;18.52;8.25;;;;;;;-2.40;78.22;98629.66;1618652;87;25879;-83
2021/01/29 01:17:27;;;;;;;18.73;8.28;;;;;;;-2.39;78.25;98633.38;1616095;87;26005;-82
2021/01/29 01:20:14;;;;;;;15.85;7.85;;;;;;;-2.38;78.23;98632.91;1618688;87;25941;-81
2021/01/29 01:22:40;;;;;;;16.00;8.80;;;;;;;-2.36;78.36;98628.48;1619831;87;25609;-82
2021/01/29 01:25:15;;;;;;;16.80;8.35;;;;;;;-2.32;78.40;98629.39;1567965;89;25762;-81
2021/01/29 01:27:42;;;;;;;16.93;7.42;;;;;;;-2.29;78.41;98628.33;1567677;89;26038;-81
2021/01/29 01:30:31;;;;;;;15.03;8.18;;;;;;;-2.29;78.41;98625.78;1526242;92;25914;-81
2021/01/29 01:32:57;;;;;;;16.67;8.15;;;;;;;-2.27;78.48;98625.16;1526653;92;25914;-82
2021/01/29 01:35:28;;;;;;;16.10;8.08;;;;;;;-2.26;78.60;98628.08;1526661;92;25764;-81
2021/01/29 01:37:55;;;;;;;14.05;7.97;;;;;;;-2.27;78.65;98632.36;1526308;92;26611;-81
2021/01/29 01:40:29;;;;;;;17.57;8.55;;;;;;;-2.28;78.75;98633.31;1519541;91;25994;-82
2021/01/29 01:42:55;;;;;;;16.35;8.98;;;;;;;-2.26;78.81;98632.72;1496955;92;26011;-81
2021/01/29 01:45:33;;;;;;;15.95;7.58;;;;;;;-2.25;78.93;98633.52;1517507;92;27430;-81
2021/01/29 01:48:10;;;;;;;14.58;8.03;;;;;;;-2.24;79.05;98634.69;1516790;92;26495;-82
2021/01/29 01:50:46;;;;;;;14.68;8.45;;;;;;;-2.24;79.05;98631.30;1514760;92;26031;-81
2021/01/29 01:53:18;;;;;;;17.75;8.03;;;;;;;-2.24;79.16;98630.86;1517081;92;26890;-81
2021/01/29 01:56:00;;;;;;;17.62;7.65;;;;;;;-2.22;79.16;98629.91;1517201;92;26017;-81
2021/01/29 01:58:34;;;;;;;17.52;8.30;;;;;;;-2.20;79.20;98627.56;1517130;92;25890;-81
2021/01/29 02:01:12;;;;;;;17.00;8.60;;;;;;;-2.18;79.18;98623.58;1516804;92;26654;-81
2021/01/29 02:03:55;;;;;;;17.20;8.18;;;;;;;-2.18;79.23;98629.53;1566145;87;25934;-82
2021/01/29 02:06:45;;;;;;;17.67;8.13;;;;;;;-2.15;79.23;98631.84;1596159;88;26157;-82
2021/01/29 02:09:21;;;;;;;17.57;8.83;;;;;;;-2.15;79.23;98629.28;1600623;87;26549;-81
2021/01/29 02:11:49;;;;;;;;;;;;;;;-2.11;79.21;98635.75;1619006;87;26416;-82
2021/01/29 02:14:34;;;;;;;19.70;8.40;;;;;;;-2.10;79.23;98641.67;1616315;87;25685;-82
2021/01/29 02:17:23;;;;;;;14.13;7.60;;;;;;;-2.11;79.14;98641.34;1614182;87;25933;-82
2021/01/29 02:20:29;;;;;;;15.23;7.40;;;;;;;-2.08;79.22;98641.89;1562634;90;25875;-82
2021/01/29 02:23:46;;;;;;;16.62;7.55;;;;;;;-2.05;79.14;98641.66;1561386;90;26208;-82
2021/01/29 02:26:59;;;;;;;14.13;7.35;;;;;;;-2.04;79.07;98652.23;1511249;93;26042;-82
2021/01/29 02:30:12;;;;;;;17.57;8.00;;;;;;;-2.02;78.89;98644.41;1508186;93;26158;-82
2021/01/29 02:33:00;;;;;;;15.45;7.65;;;;;;;-1.96;78.94;98644.39;1511149;93;26029;-82
2021/01/29 02:35:53;;;;;;;17.00;7.03;;;;;;;-1.94;78.75;98646.33;1506263;93;26539;-82
2021/01/29 02:38:48;;;;;;;13.85;7.37;;;;;;;-1.96;78.43;98641.36;1509491;93;26494;-83
2021/01/29 02:41:44;;;;;;;10.68;6.65;;;;;;;-1.97;78.57;98642.28;1511605;92;26587;-83
2021/01/29 02:44:37;;;;;;;12.15;6.80;;;;;;;-1.98;78.44;98633.47;1512190;93;25838;-82
2021/01/29 02:47:30;;;;;;;14.65;6.62;;;;;;;-1.96;78.40;98638.80;1510261;93;25922;-82
2021/01/29 02:50:36;;;;;;;14.60;7.53;;;;;;;-1.99;78.49;98630.55;1508717;93;26744;-82
2021/01/29 02:54:01;;;;;;;16.07;8.35;;;;;;;-1.99;78.50;98631.38;1513262;93;25734;-83
2021/01/29 02:56:54;;;;;;;14.70;6.28;;;;;;;-1.99;78.63;98626.70;1537206;90;26682;-82
2021/01/29 03:00:05;;;;;;;19.95;8.38;;;;;;;-1.98;78.67;98628.34;1547366;90;26001;-82
2021/01/29 03:03:12;;;;;;;14.45;6.67;;;;;;;-1.97;78.79;98626.11;1547848;90;25905;-82
2021/01/29 03:06:13;;;;;;;12.55;7.22;;;;;;;-1.97;78.73;98612.84;1614506;87;26567;-81
2021/01/29 03:08:57;;;;;;;14.03;7.22;;;;;;;-1.93;78.84;98606.54;1616359;87;25891;-82
2021/01/29 03:11:36;;;;;;;10.85;7.10;;;;;;;-1.89;78.77;98614.77;1598471;88;26867;-82
2021/01/29 03:14:32;;;;;;;12.65;7.80;;;;;;;-1.90;78.74;98618.27;1598114;88;25924;-83
2021/01/29 03:17:29;;;;;;;11.60;5.97;;;;;;;-1.93;78.83;98623.18;1596414;88;26825;-82
2021/01/29 03:20:34;;;;;;;15.00;7.25;;;;;;;-1.91;78.94;98628.16;1596246;88;26150;-83
2021/01/29 03:23:35;;;;;;;15.05;7.08;;;;;;;-1.91;78.98;98620.47;1599257;88;26843;-83
2021/01/29 03:26:26;;;;;;;16.75;7.50;;;;;;;-1.89;79.06;98615.56;1598271;88;26526;-82
2021/01/29 03:29:14;;;;;;;10.88;6.42;;;;;;;-1.89;79.08;98601.48;1596687;88;25848;-82
2021/01/29 03:32:02;;;;;;;16.30;7.50;;;;;;;-1.87;79.26;98594.97;1590223;88;25858;-82
2021/01/29 03:34:56;;;;;;;16.87;7.90;;;;;;;-1.89;79.23;98595.56;1592539;88;25886;-82
2021/01/29 03:37:51;;;;;;;17.20;8.80;;;;;;;-1.90;79.40;98592.67;1591462;88;25937;-81
2021/01/29 03:40:45;;;;;;;11.78;6.80;;;;;;;-1.92;79.46;98593.27;1590006;88;25911;-82
2021/01/29 03:43:43;;;;;;;16.82;7.30;;;;;;;-1.92;79.55;98596.63;1594016;88;25887;-82
2021/01/29 03:46:58;;;;;;;16.65;7.33;;;;;;;-1.90;79.62;98596.52;1591494;88;25818;-82
2021/01/29 03:50:08;;;;;;;14.80;7.80;;;;;;;-1.91;79.58;98603.83;1606332;87;25885;-82
2021/01/29 03:53:13;;;;;;;12.28;7.03;;;;;;;-1.91;79.63;98608.51;1578755;89;25978;-82
2021/01/29 03:56:31;;;;;;;12.60;6.58;;;;;;;-1.94;79.70;98601.53;1577648;89;26401;-82
2021/01/29 03:59:35;;;;;;;12.23;6.65;;;;;;;-1.91;79.90;98603.83;1572567;90;25856;-83
2021/01/29 04:02:29;;;;;;;11.65;5.87;;;;;;;-1.90;79.88;98610.12;1581311;90;26569;-83
2021/01/29 04:05:24;;;;;;;12.63;6.50;;;;;;;-1.87;79.95;98611.13;1581913;90;25800;-82
2021/01/29 04:08:19;;;;;;;10.28;5.83;;;;;;;-1.84;79.85;98608.31;1578684;90;25805;-82
2021/01/29 04:11:08;;;;;;;10.88;6.37;;;;;;;-1.82;79.97;98604.36;1580069;90;26538;-82
2021/01/29 04:13:47;;;;;;;11.12;6.55;;;;;;;-1.82;79.88;98597.48;1579244;90;26002;-82
2021/01/29 04:16:22;;;;;;;11.95;6.03;;;;;;;-1.80;79.93;98599.45;1594790;89;26013;-82
2021/01/29 04:18:53;;;;;;;9.70;5.90;;;;;;;-1.79;79.89;98598.97;1574409;90;26509;-82
2021/01/29 04:21:37;;;;;;;12.23;6.72;;;;;;;-1.80;79.87;98601.20;1594070;89;25856;-82
2021/01/29 04:24:26;;;;;;;8.83;6.03;;;;;;;-1.81;79.98;98601.65;1580102;90;25826;-82
2021/01/29 04:26:57;;;;;;;14.18;7.25;;;;;;;-1.81;80.04;98599.09;1579481;90;25956;-82
2021/01/29 04:29:38;;;;;;;12.05;7.00;;;;;;;-1.81;79.99;98601.65;1569371;89;26208;-82
2021/01/29 04:32:09;;;;;;;9.70;5.05;;;;;;;-1.81;80.18;98597.80;1608637;87;25883;-82
2021/01/29 04:34:40;;;;;;;11.22;6.00;;;;;;;-1.80;80.14;98603.77;1612621;87;25880;-83
2021/01/29 04:37:14;;;;;;;13.03;5.45;;;;;;;-1.81;80.23;98596.53;1618803;87;25769;-82
2021/01/29 04:39:45;;;;;;;11.00;6.03;;;;;;;-1.81;80.26;98604.20;1618727;87;25869;-83
2021/01/29 04:42:51;;;;;;;10.25;6.10;;;;;;;-1.81;80.26;98600.37;1616215;87;25726;-83
2021/01/29 04:46:11;;;;;;;12.00;5.58;;;;;;;-1.81;80.25;98605.48;1566613;89;26650;-82
2021/01/29 04:49:16;;;;;;;12.68;6.58;;;;;;;-1.82;80.33;98602.59;1568139;89;25903;-82
2021/01/29 04:52:30;;;;;;;10.78;6.12;;;;;;;-1.80;80.41;98593.05;1567398;88;25892;-82
2021/01/29 04:55:02;;;;;;;14.68;7.17;;;;;;;-1.78;80.39;98601.86;1569432;89;26420;-82
2021/01/29 04:58:16;;;;;;;11.85;6.58;;;;;;;-1.78;80.43;98604.42;1567594;89;26840;-82
2021/01/29 05:01:07;;;;;;;11.70;6.78;;;;;;;-1.79;80.40;98599.78;1530604;92;26561;-82
2021/01/29 05:03:51;;;;;;;12.95;6.87;;;;;;;-1.79;80.42;98593.38;1426205;98;26698;-82
2021/01/29 05:07:13;;;;;;;13.75;6.70;;;;;;;-1.77;80.43;98591.14;1424924;98;25945;-82
2021/01/29 05:10:38;;;;;;;11.00;5.65;;;;;;;-1.78;80.47;98592.90;1424061;98;26573;-82
2021/01/29 05:13:48;;;;;;;11.15;6.28;;;;;;;-1.77;80.55;98589.86;1427362;98;26805;-82
2021/01/29 05:16:43;;;;;;;10.28;5.50;;;;;;;-1.80;80.47;98596.08;1430028;98;25470;-82
2021/01/29 05:19:39;;;;;;;11.57;6.15;;;;;;;-1.79;80.67;98598.97;1436520;98;26454;-82
2021/01/29 05:22:40;;;;;;;15.20;6.40;;;;;;;-1.80;80.71;98597.36;1437006;98;26781;-82
2021/01/29 05:25:39;;;;;;;11.22;5.67;;;;;;;-1.82;80.73;98597.48;1435764;98;25807;-82
2021/01/29 05:28:33;;;;;;;12.55;5.08;;;;;;;-1.81;80.73;98595.25;1435160;98;26041;-82
2021/01/29 05:31:29;;;;;;;9.65;6.05;;;;;;;-1.80;80.90;98598.64;1437306;97;25817;-82
2021/01/29 05:34:18;;;;;;;9.50;5.35;;;;;;;-1.79;80.84;98593.85;1437777;98;25930;-81
2021/01/29 05:37:22;;;;;;;10.78;6.12;;;;;;;-1.79;80.85;98596.41;1435719;98;26223;-82
2021/01/29 05:40:28;;;;;;;8.60;5.28;;;;;;;-1.75;80.83;98600.80;1487177;94;26286;-81
2021/01/29 05:43:06;;;;;;;7.17;4.55;;;;;;;-1.73;80.80;98599.72;1616755;87;25532;-81
2021/01/29 05:46:00;;;;;;;9.00;5.22;;;;;;;-1.77;80.89;98594.53;1616340;87;25807;-82
2021/01/29 05:48:51;;;;;;;8.45;5.00;;;;;;;-1.73;80.87;98593.80;1614010;87;26638;-82
2021/01/29 05:51:23;;;;;;;11.45;5.47;;;;;;;-1.71;80.93;98608.57;1593968;87;26415;-82
2021/01/29 05:54:15;;;;;;;7.53;4.33;;;;;;;-1.71;80.94;98610.66;1615125;87;26702;-82
2021/01/29 05:57:12;;;;;;;8.98;5.47;;;;;;;-1.70;81.01;98608.89;1616637;87;25911;-82
2021/01/29 05:59:56;;;;;;;8.78;4.87;;;;;;;-1.70;81.02;98606.34;1615650;87;25776;-83
2021/01/29 06:02:57;;;;;;;8.95;5.47;;;;;;;-1.68;81.04;98611.67;1615888;87;25861;-82
2021/01/29 06:05:41;;;;;;;7.50;4.67;;;;;;;-1.67;81.07;98617.12;1616399;87;25820;-83
2021/01/29 06:08:50;;;;;;;8.38;4.60;;;;;;;-1.66;81.21;98617.48;1616683;87;26062;-83
2021/01/29 06:11:57;;;;;;;8.48;4.97;;;;;;;-1.67;81.29;98620.96;1615768;87;25809;-83
2021/01/29 06:14:52;;;;;;;7.95;4.67;;;;;;;-1.67;81.31;98618.41;1616347;87;25759;-83
2021/01/29 06:17:50;;;;;;;9.38;4.87;;;;;;;-1.66;81.38;98622.60;1616496;87;25799;-83
2021/01/29 06:20:38;;;;;;;8.80;4.67;;;;;;;-1.64;81.38;98623.29;1616617;87;26028;-82
2021/01/29 06:23:43;;;;;;;10.43;5.80;;;;;;;-1.65;81.44;98621.65;1614974;87;25851;-83
2021/01/29 06:26:56;;;;;;;6.90;4.37;;;;;;;-1.63;81.52;98627.94;1613113;87;25881;-83
2021/01/29 06:29:31;;;;;;;8.93;4.78;;;;;;;-1.64;81.69;98633.53;1617034;87;25809;-83
2021/01/29 06:32:33;;;;;;;8.28;5.12;;;;;;;-1.64;81.77;98629.69;1616366;87;25952;-83
2021/01/29 06:35:33;;;;;;;7.80;4.92;;;;;;;-1.64;81.73;98630.97;1615959;87;25860;-82
2021/01/29 06:38:26;;;;;;;10.18;5.12;;;;;;;-1.64;81.76;98627.13;1615650;87;25803;-82
2021/01/29 06:41:04;;;;;;;10.43;6.22;;;;;;;-1.65;81.76;98626.77;1608267;87;26483;-82
2021/01/29 06:43:57;;;;;;;7.92;4.62;;;;;;;-1.64;81.74;98616.89;1586119;88;25786;-82
2021/01/29 06:46:35;;;;;;;8.55;5.87;;;;;;;-1.61;81.78;98631.98;1589056;88;25957;-82
2021/01/29 06:49:26;;;;;;;8.13;4.78;;;;;;;-1.61;81.60;98618.34;1588240;88;26315;-82
2021/01/29 06:52:41;;;;;;;9.83;6.08;;;;;;;-1.60;81.62;98617.42;1588176;88;25930;-82
2021/01/29 06:55:30;;;;;;;8.90;5.58;;;;;;;-1.60;81.58;98622.07;1587917;89;25396;-82
2021/01/29 06:58:41;;;;;;;9.13;5.33;;;;;;;-1.60;81.53;98625.91;1588311;88;25809;-82
2021/01/29 07:01:40;;;;;;;8.05;5.00;;;;;;;-1.59;81.52;98621.13;1587890;88;25864;-82
2021/01/29 07:04:34;;;;;;;8.65;5.03;;;;;;;-1.57;81.43;98623.56;1588193;89;25794;-82
2021/01/29 07:07:30;;;;;;;9.50;5.97;;;;;;;-1.53;81.48;98632.59;1588817;88;26020;-82
2021/01/29 07:10:01;;;;;;;9.23;6.12;;;;;;;-1.52;81.42;98620.63;1588952;88;26424;-82
2021/01/29 07:13:21;;;;;;;10.23;5.83;;;;;;;-1.53;81.37;98622.82;1587980;88;26614;-83
2021/01/29 07:16:26;;;;;;;13.98;7.10;;;;;;;-1.52;81.37;98611.66;1589350;88;32497;-82
2021/01/29 07:19:16;;;;;;;12.43;6.35;;;;;;;-1.52;81.40;98621.91;1587294;88;25807;-83
2021/01/29 07:22:04;;;;;;;14.98;7.08;;;;;;;-1.50;81.42;98618.72;1590515;88;25777;-83
2021/01/29 07:24:58;;;;;;;11.10;5.83;;;;;;;-1.50;81.38;98611.03;1588954;88;25501;-83
2021/01/29 07:28:08;;;;;;;11.95;6.70;;;;;;;-1.49;81.38;98610.11;1588605;88;25897;-83
2021/01/29 07:30:48;;;;;;;10.63;6.03;;;;;;;-1.49;81.41;98603.22;1588762;88;25872;-83
2021/01/29 07:33:55;;;;;;;9.13;5.60;;;;;;;-1.45;81.38;98610.16;1588891;89;25860;-83
2021/01/29 07:36:47;;;;;;;10.78;6.75;;;;;;;-1.45;81.22;98600.72;1588077;89;26578;-83
2021/01/29 07:39:48;;;;;;;12.50;6.90;;;;;;;-1.46;81.21;98606.00;1587369;88;25820;-82
2021/01/29 07:42:38;;;;;;;11.85;6.80;;;;;;;-1.44;81.17;98603.64;1607593;87;25797;-83
2021/01/29 07:45:25;;;;;;;14.18;6.80;;;;;;;-1.41;81.24;98605.94;1613413;87;26718;-83
2021/01/29 07:48:30;;;;;;;12.23;7.33;;;;;;;-1.42;81.11;98591.97;1616091;87;26049;-82
2021/01/29 07:51:36;;;;;;;16.35;7.80;;;;;;;-1.40;81.21;98601.14;1615130;86;26696;-82
2021/01/29 07:54:44;;;;;;;19.65;7.30;;;;;;;-1.39;81.16;98600.22;1615130;86;26686;-82
2021/01/29 07:57:54;;;;;;;15.30;7.97;;;;;;;-1.40;81.12;98603.70;1618205;87;25899;-83
2021/01/29 08:00:37;;;;;;;14.35;6.80;;;;;;;-1.39;81.14;98604.54;1618778;87;26454;-82
2021/01/29 08:03:32;;;;;;;13.48;7.00;;;;;;;-1.37;81.11;98607.75;1640690;86;28109;-82
2021/01/29 08:06:14;;;;;;;12.70;7.28;;;;;;;-1.38;81.13;98601.83;1616301;87;26500;-82
2021/01/29 08:09:07;;;;;;;14.58;8.48;;;;;;;-1.35;81.06;98599.00;1616821;87;26367;-83
2021/01/29 08:11:37;;;;;;;14.85;8.43;;;;;;;-1.35;81.13;98588.74;1615509;87;26688;-82
2021/01/29 08:14:26;;;;;;;13.38;7.15;;;;;;;-1.35;81.12;98581.53;1616378;87;25945;-82
2021/01/29 08:17:06;;;;;;;12.82;6.55;;;;;;;-1.32;81.12;98583.83;1617897;86;25984;-83
2021/01/29 08:20:10;;;;;;;13.43;7.62;;;;;;;-1.30;81.14;98590.11;1613781;87;25850;-82
2021/01/29 08:23:16;;;;;;;12.53;6.75;;;;;;;-1.28;81.17;98591.60;1616578;86;25825;-82
2021/01/29 08:26:22;;;;;;;9.90;7.03;;;;;;;-1.27;80.96;98580.88;1616863;87;26152;-82
2021/01/29 08:29:28;;;;;;;14.07;7.05;;;;;;;-1.29;80.81;98580.99;1614399;87;25858;-83
2021/01/29 08:32:42;;;;;;;13.65;7.28;;;;;;;-1.26;80.80;98583.77;1616562;87;26547;-82
2021/01/29 08:35:35;;;;;;;11.33;6.90;;;;;;;-1.23;80.87;98585.61;1615736;87;26316;-82
2021/01/29 08:38:19;;;;;;;12.10;6.97;;;;;;;-1.18;80.75;98574.45;1617841;87;26759;-82
2021/01/29 08:41:15;;;;;;;11.15;6.60;;;;;;;-1.14;80.74;98573.26;1586588;88;26242;-83
2021/01/29 08:43:58;;;;;;;12.15;6.50;;;;;;;-1.12;80.51;98575.67;1577063;89;25884;-82
2021/01/29 08:46:56;;;;;;;11.22;7.10;;;;;;;-1.11;80.35;98581.16;1577458;89;25842;-82
2021/01/29 08:49:52;;;;;;;10.53;6.72;;;;;;;-1.11;80.34;98582.44;1576190;89;25890;-83
2021/01/29 08:52:52;;;;;;;10.48;6.22;;;;;;;-1.12;80.18;98588.03;1575904;89;26779;-83
2021/01/29 08:56:01;;;;;;;11.93;6.97;;;;;;;-1.10;80.34;98587.08;1576282;89;26491;-84
2021/01/29 08:59:01;;;;;;;13.40;7.42;;;;;;;-1.09;80.34;98583.11;1576995;89;25802;-84
2021/01/29 09:01:43;;;;;;;;;;;;;;;-1.06;80.32;98589.25;1577909;89;25951;-83
2021/01/29 09:04:27;;;;;;;10.65;6.50;;;;;;;-1.05;80.18;98581.88;1575283;89;26822;-84
2021/01/29 09:06:57;;;;;;;13.18;6.95;;;;;;;-1.07;79.90;98577.84;1561680;89;26184;-84
2021/01/29 09:09:31;;;;;;;12.60;7.03;;;;;;;-1.05;80.02;98586.21;1577326;89;28369;-83
2021/01/29 09:12:01;;;;;;;12.23;7.45;;;;;;;-1.06;79.83;98587.16;1576731;89;26431;-83
2021/01/29 09:14:36;;;;;;;;;;;;;;;-1.05;79.92;98592.14;1581808;88;25900;-83
2021/01/29 09:17:17;;;;;;;11.83;6.33;;;;;;;-1.07;79.77;98591.45;1593943;87;25882;-83
2021/01/29 09:19:54;;;;;;;12.30;6.87;;;;;;;-1.08;79.79;98592.89;1615535;87;26479;-83
2021/01/29 09:22:32;;;;;;;13.75;8.38;;;;;;;-1.08;79.82;98590.33;1615386;87;26598;-84
2021/01/29 09:25:05;;;;;;;10.03;6.37;;;;;;;-1.05;79.93;98578.52;1615941;87;26160;-84
2021/01/29 09:28:04;;;;;;;11.22;6.90;;;;;;;-1.03;79.66;98586.41;1618328;87;25799;-84
2021/01/29 09:31:03;;;;;;;9.80;5.87;;;;;;;-1.04;79.66;98587.81;1618101;87;25573;-84
2021/01/29 09:33:40;;;;;;;11.50;6.03;;;;;;;-1.07;79.30;98585.05;1615912;87;25588;-84
2021/01/29 09:36:20;;;;;;;12.80;6.90;;;;;;;-1.09;79.44;98584.84;1616618;87;25573;-84
2021/01/29 09:39:13;;;;;;;10.82;6.42;;;;;;;-1.08;79.43;98576.23;1617922;87;25711;-84
2021/01/29 09:42:02;;;;;;;12.15;6.35;;;;;;;-1.06;79.45;98587.16;1615187;87;26014;-84
2021/01/29 09:44:40;;;;;;;12.58;6.42;;;;;;;-1.06;79.38;98585.88;1617753;87;25823;-80
2021/01/29 09:47:10;;;;;;;12.50;6.47;;;;;;;-1.02;79.33;98589.78;1615210;87;25832;-84
2021/01/29 09:49:41;;;;;;;10.58;6.28;;;;;;;-1.04;79.11;98594.23;1615361;87;26374;-84
2021/01/29 09:52:20;;;;;;;10.95;6.37;;;;;;;-1.09;78.98;98593.38;1591686;87;25794;-84
2021/01/29 09:54:59;;;;;;;;;;;;;;;-1.08;79.14;98594.17;1619722;87;26474;-84
2021/01/29 09:57:36;;;;;;;13.20;7.90;;;;;;;-1.08;79.25;98593.70;1618861;87;25810;-84
2021/01/29 10:00:23;;;;;;;9.58;6.25;;;;;;;-1.06;79.29;98587.97;1615902;87;26711;-84
2021/01/29 10:03:04;;;;;;;10.45;6.75;;;;;;;-1.07;79.06;98583.77;1617531;87;26465;-84
2021/01/29 10:05:59;;;;;;;10.40;6.08;;;;;;;-1.09;79.02;98589.52;1617114;87;25835;-84
2021/01/29 10:08:39;;;;;;;11.15;6.83;;;;;;;-1.09;78.82;98581.83;1580080;89;25979;-85
2021/01/29 10:11:36;;;;;;;10.72;6.53;;;;;;;-1.09;78.82;98596.38;1581165;89;25865;-84
2021/01/29 10:14:17;;;;;;;11.65;6.17;;;;;;;-1.12;78.75;98590.60;1579808;89;25871;-84
2021/01/29 10:17:03;;;;;;;9.85;6.20;;;;;;;-1.14;78.63;98595.05;1581056;89;25819;-84
2021/01/29 10:19:42;;;;;;;10.00;6.75;;;;;;;-1.15;78.69;98584.47;1579548;89;25800;-84
2021/01/29 10:22:26;;;;;;;8.83;6.50;;;;;;;-1.13;78.68;98592.80;1581082;89;26467;-83
2021/01/29 10:25:20;;;;;;;11.57;6.83;;;;;;;-1.09;78.86;98589.52;1577688;89;25887;-83
2021/01/29 10:28:07;;;;;;;11.93;6.90;;;;;;;-1.04;78.81;98595.51;1580093;89;25978;-84
2021/01/29 10:30:59;;;;;;;11.48;6.40;;;;;;;-1.00;78.90;98584.86;1580400;89;25819;-84
2021/01/29 10:33:31;;;;;;;10.65;6.22;;;;;;;-0.98;78.49;98598.36;1580351;89;26103;-83
2021/01/29 10:36:08;;;;;;;9.98;6.53;;;;;;;-1.03;78.25;98586.41;1579272;89;25877;-84
2021/01/29 10:38:48;;;;;;;11.75;6.60;;;;;;;-1.04;78.02;98588.63;1579685;89;25499;-84
2021/01/29 10:41:38;;;;;;;9.38;6.20;;;;;;;-1.03;78.22;98592.02;1560503;89;25942;-82
2021/01/29 10:44:13;;;;;;;11.57;7.00;;;;;;;-1.02;78.23;98586.73;1592378;87;34020;-81
2021/01/29 10:47:22;;;;;;;11.05;7.50;;;;;;;-0.98;78.36;98591.95;1614887;87;25933;-83
2021/01/29 10:50:15;;;;;;;14.18;7.58;;;;;;;-0.98;77.76;98589.38;1616211;87;25770;-84
2021/01/29 10:53:11;;;;;;;15.88;8.88;;;;;;;-1.00;77.78;98591.27;1616840;87;25750;-84
2021/01/29 10:55:42;;;;;;;14.20;8.50;;;;;;;-1.01;77.94;98597.34;1616320;87;25964;-84
2021/01/29 10:58:48;;;;;;;16.82;9.78;;;;;;;-1.00;78.10;98586.14;1617719;87;25890;-84
2021/01/29 11:01:37;;;;;;;16.57;9.38;;;;;;;-0.96;78.28;98592.60;1616922;87;25851;-83
2021/01/29 11:04:30;;;;;;;16.40;9.45;;;;;;;-0.92;78.07;98595.25;1617549;87;25775;-85
2021/01/29 11:07:02;;;;;;;14.38;9.23;;;;;;;-0.94;77.84;98597.61;1617104;87;26867;-85
2021/01/29 11:09:38;;;;;;;13.80;9.00;;;;;;;-0.98;77.83;98596.27;1614389;87;26770;-86
2021/01/29 11:12:39;;;;;;;16.70;9.88;;;;;;;-0.96;78.08;98601.58;1619250;87;25509;-86
2021/01/29 11:15:36;;;;;;;14.50;8.33;;;;;;;-0.94;78.20;98597.61;1616076;87;25839;-86
2021/01/29 11:18:19;;;;;;;18.90;10.45;;;;;;;-0.93;78.08;98601.33;1616049;87;26637;-85
2021/01/29 11:20:47;;;;;;;13.62;7.85;;;;;;;-0.92;78.00;98607.27;1616608;87;25910;-86
2021/01/29 11:23:51;;;;;;;13.10;8.58;;;;;;;-0.94;77.96;98598.41;1591774;87;25854;-86
2021/01/29 11:26:52;;;;;;;11.70;7.87;;;;;;;-0.90;78.01;98606.66;1617012;87;25850;-86
2021/01/29 11:29:47;;;;;;;14.40;7.95;;;;;;;-0.90;77.60;98598.97;1616677;87;25914;-86
2021/01/29 11:32:27;;;;;;;13.50;8.38;;;;;;;-0.92;77.88;98598.29;1615742;87;26579;-86
2021/01/29 11:35:36;;;;;;;11.22;6.60;;;;;;;-0.90;77.97;98601.53;1615104;87;25847;-86
2021/01/29 11:38:44;;;;;;;14.68;8.38;;;;;;;-0.87;78.01;98604.27;1614593;87;25874;-87
2021/01/29 11:41:21;;;;;;;13.48;8.20;;;;;;;-0.89;77.79;98610.84;1615200;86;25896;-85
2021/01/29 11:44:04;;;;;;;14.05;8.85;;;;;;;-0.94;77.87;98613.80;1613710;87;25818;-85
2021/01/29 11:46:48;;;;;;;14.65;9.55;;;;;;;-0.97;78.00;98611.98;1613872;87;25980;-86
2021/01/29 11:49:20;;;;;;;12.28;7.83;;;;;;;-0.95;78.06;98616.03;1609937;87;26021;-85
2021/01/29 11:52:07;;;;;;;14.95;8.45;;;;;;;-0.94;77.82;98607.38;1607663;87;25887;-87
2021/01/29 11:54:50;;;;;;;12.88;7.20;;;;;;;-0.94;77.99;98615.08;1616290;86;26174;-87
2021/01/29 11:57:33;;;;;;;12.73;8.80;;;;;;;-0.91;78.01;98608.39;1616612;87;25584;-86
2021/01/29 12:00:11;;;;;;;12.93;8.15;;;;;;;-0.85;78.20;98608.80;1617553;87;26370;-88
2021/01/29 12:03:03;;;;;;;14.20;8.73;;;;;;;-0.85;77.95;98610.89;1613848;87;25680;-86
2021/01/29 12:05:58;;;;;;;13.18;7.97;;;;;;;-0.86;77.91;98605.91;1616024;87;25859;-87
2021/01/29 12:08:43;;;;;;;15.13;9.15;;;;;;;-0.86;77.95;98600.78;1616106;86;26556;-87
2021/01/29 12:11:29;;;;;;;13.70;8.88;;;;;;;-0.86;78.01;98591.33;1613537;86;26044;-86
2021/01/29 12:14:13;;;;;;;13.43;8.93;;;;;;;-0.82;77.89;98596.98;1617401;87;25780;-87
2021/01/29 12:16:40;;;;;;;17.02;9.10;;;;;;;-0.82;77.83;98600.83;1617639;87;26172;-86
2021/01/29 12:19:10;;;;;;;16.77;9.43;;;;;;;-0.82;77.85;98598.27;1619333;87;25624;-86
2021/01/29 12:21:47;;;;;;;16.67;9.60;;;;;;;-0.82;77.76;98605.52;1595212;87;25974;-85
2021/01/29 12:24:46;;;;;;;15.63;9.25;;;;;;;-0.82;77.58;98604.23;1614461;87;25914;-86
2021/01/29 12:27:26;;;;;;;17.12;10.43;;;;;;;-0.84;77.43;98604.03;1615077;87;25900;-86
2021/01/29 12:30:20;;;;;;;18.37;8.85;;;;;;;-0.85;77.70;98599.34;1594422;87;25871;-87
2021/01/29 12:33:12;;;;;;;21.52;9.75;;;;;;;-0.80;77.77;98601.03;1616573;87;26463;-86
2021/01/29 12:35:49;;;;;;;19.48;9.08;;;;;;;-0.79;77.74;98591.13;1596406;87;25821;-86
2021/01/29 12:38:38;;;;;;;12.78;7.83;;;;;;;-0.79;77.14;98591.58;1616350;87;25868;-86
2021/01/29 12:41:43;;;;;;;12.50;9.25;;;;;;;-0.83;77.41;98584.64;1615587;87;25796;-86
2021/01/29 12:44:33;;;;;;;11.25;8.05;;;;;;;-0.82;77.48;98590.13;1619849;86;25488;-85
2021/01/29 12:47:14;;;;;;;13.15;7.10;;;;;;;-0.78;77.60;98589.38;1622129;86;25874;-85
2021/01/29 12:50:03;;;;;;;15.15;8.33;;;;;;;-0.76;77.50;98599.03;1622626;87;26144;-85
2021/01/29 12:52:34;;;;;;;13.08;7.47;;;;;;;-0.80;77.34;98594.62;1623799;87;26016;-85
2021/01/29 12:55:12;;;;;;;14.43;9.60;;;;;;;-0.81;77.36;98593.49;1622434;87;26289;-86
2021/01/29 12:57:38;;;;;;;19.50;10.80;;;;;;;-0.80;77.71;98597.19;1622153;87;25829;-85
2021/01/29 13:00:21;;;;;;;16.48;10.13;;;;;;;-0.77;77.61;98595.62;1620917;87;26000;-85